sensor_id;sensor_type;location;lat;lon;timestamp;P1;durP1;ratioP1;P2;durP2;ratioP2
69203;SDS011;56317;27.658;85.326;2023-09-07T00:02:03;10.15;;;4.18;;
69203;SDS011;56317;27.658;85.326;2023-09-07T00:04:30;10.15;;;4.53;;
69203;SDS011;56317;27.658;85.326;2023-09-07T00:06:57;14.90;;;5.82;;
69203;SDS011;56317;27.658;85.326;2023-09-07T00:09:24;9.02;;;4.25;;
69203;SDS011;56317;27.658;85.326;2023-09-07T00:11:52;14.18;;;4.47;;
69203;SDS011;56317;27.658;85.326;2023-09-07T00:14:19;12.30;;;4.65;;
69203;SDS011;56317;27.658;85.326;2023-09-07T00:16:46;15.02;;;5.18;;
69203;SDS011;56317;27.658;85.326;2023-09-07T00:19:13;11.35;;;5.20;;
69203;SDS011;56317;27.658;85.326;2023-09-07T00:21:41;9.18;;;5.10;;
69203;SDS011;56317;27.658;85.326;2023-09-07T00:24:08;8.70;;;4.30;;
69203;SDS011;56317;27.658;85.326;2023-09-07T00:26:35;9.27;;;5.22;;
69203;SDS011;56317;27.658;85.326;2023-09-07T00:29:02;8.13;;;4.13;;
69203;SDS011;56317;27.658;85.326;2023-09-07T00:31:31;8.05;;;4.82;;
69203;SDS011;56317;27.658;85.326;2023-09-07T00:33:58;17.45;;;8.48;;
69203;SDS011;56317;27.658;85.326;2023-09-07T00:36:26;15.40;;;8.20;;
69203;SDS011;56317;27.658;85.326;2023-09-07T00:38:53;13.82;;;8.05;;
69203;SDS011;56317;27.658;85.326;2023-09-07T00:41:20;12.13;;;6.50;;
69203;SDS011;56317;27.658;85.326;2023-09-07T00:43:47;12.65;;;6.18;;
69203;SDS011;56317;27.658;85.326;2023-09-07T00:46:14;12.63;;;6.25;;
69203;SDS011;56317;27.658;85.326;2023-09-07T00:48:42;14.55;;;6.47;;
69203;SDS011;56317;27.658;85.326;2023-09-07T00:51:09;16.00;;;7.35;;
69203;SDS011;56317;27.658;85.326;2023-09-07T00:53:36;10.77;;;6.18;;
69203;SDS011;56317;27.658;85.326;2023-09-07T00:56:03;17.38;;;6.95;;
69203;SDS011;56317;27.658;85.326;2023-09-07T00:58:32;10.75;;;5.50;;
69203;SDS011;56317;27.658;85.326;2023-09-07T01:00:59;11.93;;;6.22;;
69203;SDS011;56317;27.658;85.326;2023-09-07T01:03:27;11.05;;;6.60;;
69203;SDS011;56317;27.658;85.326;2023-09-07T01:08:35;15.18;;;6.93;;
69203;SDS011;56317;27.658;85.326;2023-09-07T01:11:16;14.10;;;7.22;;
69203;SDS011;56317;27.658;85.326;2023-09-07T01:13:48;10.57;;;6.55;;
69203;SDS011;56317;27.658;85.326;2023-09-07T01:16:17;12.75;;;7.47;;
69203;SDS011;56317;27.658;85.326;2023-09-07T01:18:46;19.70;;;10.98;;
69203;SDS011;56317;27.658;85.326;2023-09-07T01:21:13;20.60;;;10.00;;
69203;SDS011;56317;27.658;85.326;2023-09-07T01:23:43;22.17;;;10.68;;
69203;SDS011;56317;27.658;85.326;2023-09-07T01:26:13;26.73;;;14.82;;
69203;SDS011;56317;27.658;85.326;2023-09-07T01:28:40;29.35;;;15.02;;
69203;SDS011;56317;27.658;85.326;2023-09-07T01:31:09;26.58;;;14.32;;
69203;SDS011;56317;27.658;85.326;2023-09-07T01:33:36;20.50;;;11.48;;
69203;SDS011;56317;27.658;85.326;2023-09-07T01:36:04;21.88;;;11.10;;
69203;SDS011;56317;27.658;85.326;2023-09-07T01:38:31;16.90;;;8.98;;
69203;SDS011;56317;27.658;85.326;2023-09-07T01:40:59;16.80;;;8.82;;
69203;SDS011;56317;27.658;85.326;2023-09-07T01:43:28;15.93;;;7.47;;
69203;SDS011;56317;27.658;85.326;2023-09-07T01:45:56;15.32;;;9.40;;
69203;SDS011;56317;27.658;85.326;2023-09-07T01:48:23;15.57;;;7.53;;
69203;SDS011;56317;27.658;85.326;2023-09-07T01:50:53;18.70;;;8.23;;
69203;SDS011;56317;27.658;85.326;2023-09-07T01:53:21;13.98;;;8.27;;
69203;SDS011;56317;27.658;85.326;2023-09-07T01:55:48;15.48;;;8.90;;
69203;SDS011;56317;27.658;85.326;2023-09-07T01:58:15;14.48;;;9.07;;
69203;SDS011;56317;27.658;85.326;2023-09-07T02:00:42;18.70;;;8.88;;
69203;SDS011;56317;27.658;85.326;2023-09-07T02:03:09;15.15;;;8.82;;
69203;SDS011;56317;27.658;85.326;2023-09-07T02:05:36;17.55;;;8.68;;
69203;SDS011;56317;27.658;85.326;2023-09-07T02:08:04;13.60;;;7.90;;
69203;SDS011;56317;27.658;85.326;2023-09-07T02:10:33;15.77;;;8.23;;
69203;SDS011;56317;27.658;85.326;2023-09-07T02:13:00;15.30;;;9.68;;
69203;SDS011;56317;27.658;85.326;2023-09-07T02:15:30;18.63;;;10.13;;
69203;SDS011;56317;27.658;85.326;2023-09-07T02:17:59;15.93;;;9.13;;
69203;SDS011;56317;27.658;85.326;2023-09-07T02:20:29;19.63;;;10.68;;
69203;SDS011;56317;27.658;85.326;2023-09-07T02:22:56;18.52;;;9.60;;
69203;SDS011;56317;27.658;85.326;2023-09-07T02:25:23;19.50;;;10.98;;
69203;SDS011;56317;27.658;85.326;2023-09-07T02:27:51;16.70;;;10.00;;
69203;SDS011;56317;27.658;85.326;2023-09-07T02:30:18;18.63;;;9.18;;
69203;SDS011;56317;27.658;85.326;2023-09-07T02:32:48;14.63;;;8.88;;
69203;SDS011;56317;27.658;85.326;2023-09-07T02:35:21;18.48;;;8.93;;
69203;SDS011;56317;27.658;85.326;2023-09-07T02:37:51;17.45;;;9.50;;
69203;SDS011;56317;27.658;85.326;2023-09-07T02:40:20;20.83;;;9.48;;
69203;SDS011;56317;27.658;85.326;2023-09-07T02:42:48;24.23;;;10.70;;
69203;SDS011;56317;27.658;85.326;2023-09-07T02:45:19;16.10;;;9.45;;
69203;SDS011;56317;27.658;85.326;2023-09-07T02:47:49;17.48;;;10.02;;
69203;SDS011;56317;27.658;85.326;2023-09-07T02:50:17;16.00;;;7.82;;
69203;SDS011;56317;27.658;85.326;2023-09-07T02:52:44;28.27;;;10.32;;
69203;SDS011;56317;27.658;85.326;2023-09-07T02:55:11;17.95;;;8.85;;
69203;SDS011;56317;27.658;85.326;2023-09-07T02:57:40;16.55;;;8.40;;
69203;SDS011;56317;27.658;85.326;2023-09-07T03:00:07;16.60;;;9.57;;
69203;SDS011;56317;27.658;85.326;2023-09-07T03:02:36;16.63;;;9.00;;
69203;SDS011;56317;27.658;85.326;2023-09-07T03:05:03;13.95;;;7.97;;
69203;SDS011;56317;27.658;85.326;2023-09-07T03:07:32;16.88;;;7.63;;
69203;SDS011;56317;27.658;85.326;2023-09-07T03:10:00;12.73;;;7.15;;
69203;SDS011;56317;27.658;85.326;2023-09-07T03:12:27;13.35;;;7.20;;
69203;SDS011;56317;27.658;85.326;2023-09-07T03:14:54;15.27;;;6.70;;
69203;SDS011;56317;27.658;85.326;2023-09-07T03:17:29;13.65;;;7.95;;
69203;SDS011;56317;27.658;85.326;2023-09-07T03:19:56;16.85;;;8.45;;
69203;SDS011;56317;27.658;85.326;2023-09-07T03:22:23;14.18;;;7.65;;
69203;SDS011;56317;27.658;85.326;2023-09-07T03:24:51;10.88;;;5.90;;
69203;SDS011;56317;27.658;85.326;2023-09-07T03:27:22;14.63;;;6.65;;
69203;SDS011;56317;27.658;85.326;2023-09-07T03:30:10;13.35;;;7.40;;
69203;SDS011;56317;27.658;85.326;2023-09-07T03:32:37;13.27;;;7.18;;
69203;SDS011;56317;27.658;85.326;2023-09-07T03:37:58;15.15;;;6.32;;
69203;SDS011;56317;27.658;85.326;2023-09-07T03:40:25;11.70;;;6.03;;
69203;SDS011;56317;27.658;85.326;2023-09-07T03:42:52;10.75;;;5.32;;
69203;SDS011;56317;27.658;85.326;2023-09-07T03:45:19;10.77;;;5.35;;
69203;SDS011;56317;27.658;85.326;2023-09-07T03:47:46;8.45;;;5.00;;
69203;SDS011;56317;27.658;85.326;2023-09-07T03:50:13;10.20;;;5.43;;
69203;SDS011;56317;27.658;85.326;2023-09-07T03:52:40;10.88;;;5.70;;
69203;SDS011;56317;27.658;85.326;2023-09-07T03:55:08;8.50;;;4.97;;
69203;SDS011;56317;27.658;85.326;2023-09-07T03:57:36;9.93;;;5.18;;
69203;SDS011;56317;27.658;85.326;2023-09-07T04:00:03;14.15;;;5.82;;
69203;SDS011;56317;27.658;85.326;2023-09-07T04:02:34;11.95;;;6.13;;
69203;SDS011;56317;27.658;85.326;2023-09-07T04:05:01;9.20;;;5.45;;
69203;SDS011;56317;27.658;85.326;2023-09-07T04:07:30;12.27;;;5.88;;
69203;SDS011;56317;27.658;85.326;2023-09-07T04:09:58;10.90;;;5.18;;
69203;SDS011;56317;27.658;85.326;2023-09-07T04:12:28;8.60;;;4.45;;
69203;SDS011;56317;27.658;85.326;2023-09-07T04:15:03;9.75;;;5.00;;
69203;SDS011;56317;27.658;85.326;2023-09-07T04:17:40;10.18;;;5.32;;
69203;SDS011;56317;27.658;85.326;2023-09-07T04:20:07;9.38;;;5.00;;
69203;SDS011;56317;27.658;85.326;2023-09-07T04:22:39;10.55;;;5.10;;
69203;SDS011;56317;27.658;85.326;2023-09-07T04:25:12;10.10;;;5.10;;
69203;SDS011;56317;27.658;85.326;2023-09-07T04:27:39;9.60;;;4.80;;
69203;SDS011;56317;27.658;85.326;2023-09-07T04:30:07;7.90;;;4.40;;
69203;SDS011;56317;27.658;85.326;2023-09-07T04:32:34;8.23;;;4.53;;
69203;SDS011;56317;27.658;85.326;2023-09-07T04:35:02;8.25;;;4.70;;
69203;SDS011;56317;27.658;85.326;2023-09-07T04:37:29;10.02;;;4.53;;
69203;SDS011;56317;27.658;85.326;2023-09-07T04:39:56;7.03;;;4.38;;
69203;SDS011;56317;27.658;85.326;2023-09-07T04:42:23;8.32;;;4.93;;
69203;SDS011;56317;27.658;85.326;2023-09-07T04:44:50;8.40;;;4.78;;
69203;SDS011;56317;27.658;85.326;2023-09-07T04:47:20;8.50;;;4.70;;
69203;SDS011;56317;27.658;85.326;2023-09-07T04:52:37;10.70;;;4.82;;
69203;SDS011;56317;27.658;85.326;2023-09-07T04:55:07;7.82;;;4.45;;
69203;SDS011;56317;27.658;85.326;2023-09-07T04:57:35;8.05;;;4.40;;
69203;SDS011;56317;27.658;85.326;2023-09-07T05:00:05;8.15;;;4.40;;
69203;SDS011;56317;27.658;85.326;2023-09-07T05:02:35;7.82;;;4.30;;
69203;SDS011;56317;27.658;85.326;2023-09-07T05:05:09;10.05;;;5.15;;
69203;SDS011;56317;27.658;85.326;2023-09-07T05:07:36;8.45;;;4.95;;
69203;SDS011;56317;27.658;85.326;2023-09-07T05:10:03;8.90;;;4.70;;
69203;SDS011;56317;27.658;85.326;2023-09-07T05:12:32;9.57;;;4.53;;
69203;SDS011;56317;27.658;85.326;2023-09-07T05:14:59;8.20;;;4.85;;
69203;SDS011;56317;27.658;85.326;2023-09-07T05:17:26;7.93;;;4.90;;
69203;SDS011;56317;27.658;85.326;2023-09-07T05:19:54;8.45;;;4.70;;
69203;SDS011;56317;27.658;85.326;2023-09-07T05:22:21;10.02;;;5.05;;
69203;SDS011;56317;27.658;85.326;2023-09-07T05:24:50;10.10;;;5.03;;
69203;SDS011;56317;27.658;85.326;2023-09-07T05:27:17;11.10;;;4.88;;
69203;SDS011;56317;27.658;85.326;2023-09-07T05:29:44;9.43;;;5.57;;
69203;SDS011;56317;27.658;85.326;2023-09-07T05:32:12;11.05;;;5.10;;
69203;SDS011;56317;27.658;85.326;2023-09-07T05:34:42;12.52;;;5.10;;
69203;SDS011;56317;27.658;85.326;2023-09-07T05:37:09;7.95;;;4.40;;
69203;SDS011;56317;27.658;85.326;2023-09-07T05:39:36;9.55;;;4.75;;
69203;SDS011;56317;27.658;85.326;2023-09-07T05:42:03;11.07;;;5.05;;
69203;SDS011;56317;27.658;85.326;2023-09-07T05:44:30;10.85;;;4.95;;
69203;SDS011;56317;27.658;85.326;2023-09-07T05:46:57;9.40;;;4.13;;
69203;SDS011;56317;27.658;85.326;2023-09-07T05:49:25;7.75;;;4.20;;
69203;SDS011;56317;27.658;85.326;2023-09-07T05:51:52;8.15;;;4.15;;
69203;SDS011;56317;27.658;85.326;2023-09-07T05:54:19;7.88;;;4.13;;
69203;SDS011;56317;27.658;85.326;2023-09-07T05:56:46;8.05;;;4.53;;
69203;SDS011;56317;27.658;85.326;2023-09-07T06:02:26;9.20;;;4.53;;
69203;SDS011;56317;27.658;85.326;2023-09-07T06:04:53;8.05;;;4.03;;
69203;SDS011;56317;27.658;85.326;2023-09-07T06:10:27;7.60;;;4.47;;
69203;SDS011;56317;27.658;85.326;2023-09-07T06:12:55;8.43;;;4.97;;
69203;SDS011;56317;27.658;85.326;2023-09-07T06:15:26;9.95;;;5.25;;
69203;SDS011;56317;27.658;85.326;2023-09-07T06:18:04;8.57;;;4.72;;
69203;SDS011;56317;27.658;85.326;2023-09-07T06:20:31;10.43;;;5.25;;
69203;SDS011;56317;27.658;85.326;2023-09-07T06:22:59;6.70;;;4.18;;
69203;SDS011;56317;27.658;85.326;2023-09-07T06:25:27;10.15;;;4.80;;
69203;SDS011;56317;27.658;85.326;2023-09-07T06:27:54;10.85;;;4.93;;
69203;SDS011;56317;27.658;85.326;2023-09-07T06:30:22;10.70;;;4.38;;
69203;SDS011;56317;27.658;85.326;2023-09-07T06:32:49;8.02;;;4.57;;
69203;SDS011;56317;27.658;85.326;2023-09-07T06:35:18;9.07;;;4.40;;
69203;SDS011;56317;27.658;85.326;2023-09-07T06:37:45;7.47;;;4.85;;
69203;SDS011;56317;27.658;85.326;2023-09-07T06:40:12;8.10;;;4.93;;
69203;SDS011;56317;27.658;85.326;2023-09-07T06:42:41;7.97;;;4.50;;
69203;SDS011;56317;27.658;85.326;2023-09-07T06:45:08;7.68;;;4.32;;
69203;SDS011;56317;27.658;85.326;2023-09-07T06:47:36;7.28;;;4.70;;
69203;SDS011;56317;27.658;85.326;2023-09-07T06:50:09;10.43;;;5.43;;
69203;SDS011;56317;27.658;85.326;2023-09-07T06:52:36;8.02;;;4.45;;
69203;SDS011;56317;27.658;85.326;2023-09-07T06:55:05;8.90;;;5.10;;
69203;SDS011;56317;27.658;85.326;2023-09-07T06:57:32;11.05;;;5.60;;
69203;SDS011;56317;27.658;85.326;2023-09-07T07:00:02;8.85;;;4.53;;
69203;SDS011;56317;27.658;85.326;2023-09-07T07:02:33;8.88;;;5.00;;
69203;SDS011;56317;27.658;85.326;2023-09-07T07:05:01;7.20;;;4.60;;
69203;SDS011;56317;27.658;85.326;2023-09-07T07:07:29;7.93;;;4.30;;
69203;SDS011;56317;27.658;85.326;2023-09-07T07:09:57;6.70;;;3.85;;
69203;SDS011;56317;27.658;85.326;2023-09-07T07:12:24;8.07;;;4.60;;
69203;SDS011;56317;27.658;85.326;2023-09-07T07:15:07;6.30;;;3.75;;
69203;SDS011;56317;27.658;85.326;2023-09-07T07:17:46;7.32;;;4.10;;
69203;SDS011;56317;27.658;85.326;2023-09-07T07:20:14;7.35;;;4.18;;
69203;SDS011;56317;27.658;85.326;2023-09-07T07:25:11;8.27;;;3.97;;
69203;SDS011;56317;27.658;85.326;2023-09-07T07:28:04;8.52;;;4.53;;
69203;SDS011;56317;27.658;85.326;2023-09-07T07:30:36;6.25;;;3.80;;
69203;SDS011;56317;27.658;85.326;2023-09-07T07:33:07;9.23;;;4.57;;
69203;SDS011;56317;27.658;85.326;2023-09-07T07:35:46;7.38;;;3.42;;
69203;SDS011;56317;27.658;85.326;2023-09-07T07:38:20;6.03;;;3.60;;
69203;SDS011;56317;27.658;85.326;2023-09-07T07:40:48;8.23;;;3.35;;
69203;SDS011;56317;27.658;85.326;2023-09-07T07:43:18;7.63;;;3.90;;
69203;SDS011;56317;27.658;85.326;2023-09-07T07:56:30;7.25;;;3.42;;
69203;SDS011;56317;27.658;85.326;2023-09-07T07:58:59;7.03;;;4.05;;
69203;SDS011;56317;27.658;85.326;2023-09-07T08:01:28;8.82;;;3.90;;
69203;SDS011;56317;27.658;85.326;2023-09-07T08:04:00;6.85;;;3.88;;
69203;SDS011;56317;27.658;85.326;2023-09-07T08:06:30;10.65;;;4.00;;
69203;SDS011;56317;27.658;85.326;2023-09-07T08:08:57;7.30;;;3.92;;
69203;SDS011;56317;27.658;85.326;2023-09-07T08:11:24;7.75;;;4.22;;
69203;SDS011;56317;27.658;85.326;2023-09-07T08:13:54;8.70;;;4.53;;
69203;SDS011;56317;27.658;85.326;2023-09-07T08:16:21;9.18;;;4.47;;
69203;SDS011;56317;27.658;85.326;2023-09-07T08:18:50;12.48;;;5.30;;
69203;SDS011;56317;27.658;85.326;2023-09-07T08:21:18;12.85;;;5.63;;
69203;SDS011;56317;27.658;85.326;2023-09-07T08:23:48;8.60;;;5.40;;
69203;SDS011;56317;27.658;85.326;2023-09-07T08:26:20;7.90;;;4.43;;
69203;SDS011;56317;27.658;85.326;2023-09-07T08:28:55;8.23;;;4.63;;
69203;SDS011;56317;27.658;85.326;2023-09-07T08:33:54;6.97;;;4.05;;
69203;SDS011;56317;27.658;85.326;2023-09-07T08:36:25;7.35;;;3.95;;
69203;SDS011;56317;27.658;85.326;2023-09-07T08:39:01;7.47;;;4.10;;
69203;SDS011;56317;27.658;85.326;2023-09-07T08:41:44;10.55;;;3.92;;
69203;SDS011;56317;27.658;85.326;2023-09-07T08:44:30;9.50;;;3.83;;
69203;SDS011;56317;27.658;85.326;2023-09-07T08:46:59;5.55;;;3.45;;
69203;SDS011;56317;27.658;85.326;2023-09-07T08:49:32;7.97;;;3.63;;
69203;SDS011;56317;27.658;85.326;2023-09-07T08:52:04;9.00;;;4.38;;
69203;SDS011;56317;27.658;85.326;2023-09-07T08:54:37;6.82;;;3.85;;
69203;SDS011;56317;27.658;85.326;2023-09-07T08:57:14;5.43;;;3.55;;
69203;SDS011;56317;27.658;85.326;2023-09-07T08:59:43;7.40;;;3.35;;
69203;SDS011;56317;27.658;85.326;2023-09-07T09:05:07;6.60;;;3.38;;
69203;SDS011;56317;27.658;85.326;2023-09-07T09:07:37;7.43;;;3.72;;
69203;SDS011;56317;27.658;85.326;2023-09-07T09:10:07;9.27;;;3.70;;
69203;SDS011;56317;27.658;85.326;2023-09-07T09:12:35;6.40;;;3.25;;
69203;SDS011;56317;27.658;85.326;2023-09-07T09:15:10;7.57;;;3.38;;
69203;SDS011;56317;27.658;85.326;2023-09-07T09:17:37;6.50;;;3.63;;
69203;SDS011;56317;27.658;85.326;2023-09-07T09:20:05;6.85;;;4.03;;
69203;SDS011;56317;27.658;85.326;2023-09-07T09:25:22;9.45;;;4.50;;
69203;SDS011;56317;27.658;85.326;2023-09-07T09:27:49;10.38;;;5.25;;
69203;SDS011;56317;27.658;85.326;2023-09-07T09:30:21;7.43;;;4.30;;
69203;SDS011;56317;27.658;85.326;2023-09-07T09:32:48;9.32;;;5.25;;
69203;SDS011;56317;27.658;85.326;2023-09-07T09:35:17;8.93;;;5.07;;
69203;SDS011;56317;27.658;85.326;2023-09-07T09:37:48;10.45;;;5.82;;
69203;SDS011;56317;27.658;85.326;2023-09-07T09:40:16;10.50;;;5.68;;
69203;SDS011;56317;27.658;85.326;2023-09-07T09:42:44;13.68;;;6.13;;
69203;SDS011;56317;27.658;85.326;2023-09-07T09:45:12;9.18;;;4.22;;
69203;SDS011;56317;27.658;85.326;2023-09-07T09:47:40;9.52;;;4.63;;
69203;SDS011;56317;27.658;85.326;2023-09-07T09:50:11;7.97;;;4.65;;
69203;SDS011;56317;27.658;85.326;2023-09-07T09:52:38;12.52;;;5.30;;
69203;SDS011;56317;27.658;85.326;2023-09-07T09:55:06;11.75;;;5.45;;
69203;SDS011;56317;27.658;85.326;2023-09-07T09:57:38;14.88;;;6.53;;
69203;SDS011;56317;27.658;85.326;2023-09-07T10:00:06;14.90;;;5.97;;
69203;SDS011;56317;27.658;85.326;2023-09-07T10:03:01;15.38;;;6.53;;
69203;SDS011;56317;27.658;85.326;2023-09-07T10:11:39;16.80;;;7.63;;
69203;SDS011;56317;27.658;85.326;2023-09-07T10:14:13;9.13;;;5.38;;
69203;SDS011;56317;27.658;85.326;2023-09-07T10:16:43;16.05;;;6.90;;
69203;SDS011;56317;27.658;85.326;2023-09-07T10:19:37;15.90;;;6.10;;
69203;SDS011;56317;27.658;85.326;2023-09-07T10:22:11;10.75;;;5.93;;
69203;SDS011;56317;27.658;85.326;2023-09-07T10:24:56;16.92;;;6.68;;
69203;SDS011;56317;27.658;85.326;2023-09-07T10:27:37;13.10;;;7.07;;
69203;SDS011;56317;27.658;85.326;2023-09-07T10:30:11;13.27;;;6.88;;
69203;SDS011;56317;27.658;85.326;2023-09-07T10:35:15;12.00;;;5.95;;
69203;SDS011;56317;27.658;85.326;2023-09-07T10:37:47;16.27;;;6.45;;
69203;SDS011;56317;27.658;85.326;2023-09-07T10:41:00;15.98;;;6.90;;
69203;SDS011;56317;27.658;85.326;2023-09-07T10:43:49;15.50;;;6.43;;
69203;SDS011;56317;27.658;85.326;2023-09-07T10:46:19;14.05;;;5.47;;
69203;SDS011;56317;27.658;85.326;2023-09-07T10:48:51;10.88;;;5.40;;
69203;SDS011;56317;27.658;85.326;2023-09-07T10:51:21;12.45;;;6.20;;
69203;SDS011;56317;27.658;85.326;2023-09-07T10:53:52;11.02;;;6.38;;
69203;SDS011;56317;27.658;85.326;2023-09-07T10:56:45;10.88;;;5.35;;
69203;SDS011;56317;27.658;85.326;2023-09-07T10:59:18;13.18;;;6.43;;
69203;SDS011;56317;27.658;85.326;2023-09-07T11:01:46;14.57;;;6.80;;
69203;SDS011;56317;27.658;85.326;2023-09-07T11:04:14;15.98;;;6.40;;
69203;SDS011;56317;27.658;85.326;2023-09-07T11:06:42;14.30;;;5.40;;
69203;SDS011;56317;27.658;85.326;2023-09-07T11:09:10;11.13;;;5.35;;
69203;SDS011;56317;27.658;85.326;2023-09-07T11:11:46;11.73;;;6.05;;
69203;SDS011;56317;27.658;85.326;2023-09-07T11:14:13;18.00;;;7.93;;
69203;SDS011;56317;27.658;85.326;2023-09-07T11:19:38;14.02;;;7.57;;
69203;SDS011;56317;27.658;85.326;2023-09-07T11:22:05;14.77;;;7.65;;
69203;SDS011;56317;27.658;85.326;2023-09-07T11:24:38;16.80;;;7.50;;
69203;SDS011;56317;27.658;85.326;2023-09-07T11:27:16;11.13;;;6.15;;
69203;SDS011;56317;27.658;85.326;2023-09-07T11:29:50;14.00;;;6.80;;
69203;SDS011;56317;27.658;85.326;2023-09-07T11:32:18;14.80;;;7.55;;
69203;SDS011;56317;27.658;85.326;2023-09-07T11:34:50;16.23;;;7.80;;
69203;SDS011;56317;27.658;85.326;2023-09-07T11:39:56;20.05;;;7.05;;
69203;SDS011;56317;27.658;85.326;2023-09-07T11:42:24;19.27;;;7.78;;
69203;SDS011;56317;27.658;85.326;2023-09-07T11:44:51;12.80;;;6.95;;
69203;SDS011;56317;27.658;85.326;2023-09-07T11:47:18;15.93;;;6.93;;
69203;SDS011;56317;27.658;85.326;2023-09-07T11:49:45;12.98;;;6.47;;
69203;SDS011;56317;27.658;85.326;2023-09-07T11:52:14;14.02;;;6.82;;
69203;SDS011;56317;27.658;85.326;2023-09-07T11:54:41;14.90;;;6.72;;
69203;SDS011;56317;27.658;85.326;2023-09-07T11:57:08;12.93;;;6.47;;
69203;SDS011;56317;27.658;85.326;2023-09-07T11:59:41;11.40;;;6.78;;
69203;SDS011;56317;27.658;85.326;2023-09-07T12:02:08;13.63;;;6.60;;
69203;SDS011;56317;27.658;85.326;2023-09-07T12:04:40;14.82;;;7.75;;
69203;SDS011;56317;27.658;85.326;2023-09-07T12:07:07;17.40;;;7.28;;
69203;SDS011;56317;27.658;85.326;2023-09-07T12:09:34;15.07;;;7.95;;
69203;SDS011;56317;27.658;85.326;2023-09-07T12:12:03;17.65;;;7.90;;
69203;SDS011;56317;27.658;85.326;2023-09-07T12:14:30;16.70;;;7.63;;
69203;SDS011;56317;27.658;85.326;2023-09-07T12:16:57;15.80;;;7.22;;
69203;SDS011;56317;27.658;85.326;2023-09-07T12:19:25;14.07;;;6.97;;
69203;SDS011;56317;27.658;85.326;2023-09-07T12:21:52;18.52;;;8.25;;
69203;SDS011;56317;27.658;85.326;2023-09-07T12:24:20;16.58;;;8.73;;
69203;SDS011;56317;27.658;85.326;2023-09-07T12:26:47;17.52;;;9.40;;
69203;SDS011;56317;27.658;85.326;2023-09-07T12:29:15;15.02;;;8.70;;
69203;SDS011;56317;27.658;85.326;2023-09-07T12:31:42;23.75;;;9.60;;
69203;SDS011;56317;27.658;85.326;2023-09-07T12:34:09;25.17;;;10.50;;
69203;SDS011;56317;27.658;85.326;2023-09-07T12:36:36;20.30;;;10.13;;
69203;SDS011;56317;27.658;85.326;2023-09-07T12:39:03;18.65;;;10.13;;
69203;SDS011;56317;27.658;85.326;2023-09-07T12:41:31;19.40;;;9.93;;
69203;SDS011;56317;27.658;85.326;2023-09-07T12:44:05;21.30;;;9.75;;
69203;SDS011;56317;27.658;85.326;2023-09-07T12:46:32;21.83;;;12.18;;
69203;SDS011;56317;27.658;85.326;2023-09-07T12:49:00;20.20;;;10.80;;
69203;SDS011;56317;27.658;85.326;2023-09-07T12:51:27;17.38;;;8.30;;
69203;SDS011;56317;27.658;85.326;2023-09-07T12:53:54;25.90;;;9.27;;
69203;SDS011;56317;27.658;85.326;2023-09-07T12:56:22;22.58;;;13.00;;
69203;SDS011;56317;27.658;85.326;2023-09-07T12:58:50;20.45;;;8.98;;
69203;SDS011;56317;27.658;85.326;2023-09-07T13:01:17;32.40;;;16.38;;
69203;SDS011;56317;27.658;85.326;2023-09-07T13:03:45;34.88;;;15.68;;
69203;SDS011;56317;27.658;85.326;2023-09-07T13:06:12;17.95;;;9.90;;
69203;SDS011;56317;27.658;85.326;2023-09-07T13:08:39;17.08;;;9.27;;
69203;SDS011;56317;27.658;85.326;2023-09-07T13:11:06;18.30;;;8.80;;
69203;SDS011;56317;27.658;85.326;2023-09-07T13:13:33;18.38;;;9.60;;
69203;SDS011;56317;27.658;85.326;2023-09-07T13:16:00;16.70;;;9.27;;
69203;SDS011;56317;27.658;85.326;2023-09-07T13:18:27;14.88;;;8.60;;
69203;SDS011;56317;27.658;85.326;2023-09-07T13:20:54;13.65;;;7.75;;
69203;SDS011;56317;27.658;85.326;2023-09-07T13:23:28;12.98;;;7.03;;
69203;SDS011;56317;27.658;85.326;2023-09-07T13:25:56;12.32;;;6.15;;
69203;SDS011;56317;27.658;85.326;2023-09-07T13:28:25;10.10;;;5.20;;
69203;SDS011;56317;27.658;85.326;2023-09-07T13:30:52;11.00;;;6.07;;
69203;SDS011;56317;27.658;85.326;2023-09-07T13:33:20;12.40;;;6.50;;
69203;SDS011;56317;27.658;85.326;2023-09-07T13:35:47;13.98;;;7.13;;
69203;SDS011;56317;27.658;85.326;2023-09-07T13:38:14;12.32;;;6.72;;
69203;SDS011;56317;27.658;85.326;2023-09-07T13:40:41;11.85;;;6.13;;
69203;SDS011;56317;27.658;85.326;2023-09-07T13:43:08;12.93;;;6.85;;
69203;SDS011;56317;27.658;85.326;2023-09-07T13:45:35;11.35;;;6.55;;
69203;SDS011;56317;27.658;85.326;2023-09-07T13:48:02;15.82;;;6.90;;
69203;SDS011;56317;27.658;85.326;2023-09-07T13:50:30;12.68;;;5.95;;
69203;SDS011;56317;27.658;85.326;2023-09-07T13:52:57;14.10;;;7.28;;
69203;SDS011;56317;27.658;85.326;2023-09-07T13:55:24;16.98;;;8.18;;
69203;SDS011;56317;27.658;85.326;2023-09-07T13:57:51;16.40;;;8.50;;
69203;SDS011;56317;27.658;85.326;2023-09-07T14:00:19;14.48;;;6.35;;
69203;SDS011;56317;27.658;85.326;2023-09-07T14:02:46;8.25;;;4.53;;
69203;SDS011;56317;27.658;85.326;2023-09-07T14:05:13;6.88;;;3.50;;
69203;SDS011;56317;27.658;85.326;2023-09-07T14:07:40;7.82;;;3.22;;
69203;SDS011;56317;27.658;85.326;2023-09-07T14:10:07;7.97;;;3.92;;
69203;SDS011;56317;27.658;85.326;2023-09-07T14:12:34;6.03;;;2.95;;
69203;SDS011;56317;27.658;85.326;2023-09-07T14:15:01;10.00;;;3.20;;
69203;SDS011;56317;27.658;85.326;2023-09-07T14:17:28;8.27;;;3.72;;
69203;SDS011;56317;27.658;85.326;2023-09-07T14:19:56;8.38;;;4.45;;
69203;SDS011;56317;27.658;85.326;2023-09-07T14:22:23;13.80;;;5.15;;
69203;SDS011;56317;27.658;85.326;2023-09-07T14:24:50;11.35;;;5.25;;
69203;SDS011;56317;27.658;85.326;2023-09-07T14:27:17;11.75;;;6.57;;
69203;SDS011;56317;27.658;85.326;2023-09-07T14:29:44;12.23;;;5.97;;
69203;SDS011;56317;27.658;85.326;2023-09-07T14:32:11;13.93;;;6.53;;
69203;SDS011;56317;27.658;85.326;2023-09-07T14:34:38;15.00;;;7.10;;
69203;SDS011;56317;27.658;85.326;2023-09-07T14:37:05;11.88;;;6.30;;
69203;SDS011;56317;27.658;85.326;2023-09-07T14:39:32;12.30;;;6.68;;
69203;SDS011;56317;27.658;85.326;2023-09-07T14:42:01;13.77;;;7.30;;
69203;SDS011;56317;27.658;85.326;2023-09-07T14:44:28;14.63;;;7.15;;
69203;SDS011;56317;27.658;85.326;2023-09-07T14:46:56;14.32;;;7.65;;
69203;SDS011;56317;27.658;85.326;2023-09-07T14:49:23;13.52;;;8.18;;
69203;SDS011;56317;27.658;85.326;2023-09-07T14:51:50;12.48;;;6.85;;
69203;SDS011;56317;27.658;85.326;2023-09-07T14:54:17;14.85;;;7.38;;
69203;SDS011;56317;27.658;85.326;2023-09-07T14:56:44;12.60;;;7.07;;
69203;SDS011;56317;27.658;85.326;2023-09-07T14:59:11;14.13;;;7.68;;
69203;SDS011;56317;27.658;85.326;2023-09-07T15:01:38;14.07;;;7.70;;
69203;SDS011;56317;27.658;85.326;2023-09-07T15:04:05;15.55;;;8.23;;
69203;SDS011;56317;27.658;85.326;2023-09-07T15:06:33;15.45;;;7.57;;
69203;SDS011;56317;27.658;85.326;2023-09-07T15:09:00;16.77;;;8.90;;
69203;SDS011;56317;27.658;85.326;2023-09-07T15:11:27;15.80;;;7.90;;
69203;SDS011;56317;27.658;85.326;2023-09-07T15:13:54;12.35;;;7.13;;
69203;SDS011;56317;27.658;85.326;2023-09-07T15:16:22;13.35;;;6.07;;
69203;SDS011;56317;27.658;85.326;2023-09-07T15:18:50;9.45;;;4.82;;
69203;SDS011;56317;27.658;85.326;2023-09-07T15:21:17;8.55;;;4.00;;
69203;SDS011;56317;27.658;85.326;2023-09-07T15:23:46;6.38;;;3.83;;
69203;SDS011;56317;27.658;85.326;2023-09-07T15:26:14;8.30;;;4.55;;
69203;SDS011;56317;27.658;85.326;2023-09-07T15:28:41;6.97;;;3.90;;